Time;durP1;ratioP1;P1;durP2;ratioP2;P2;SDS_P1;SDS_P2;PMS_P1;PMS_P2;Temp;Humidity;BMP_temperature;BMP_pressure;BME280_temperature;BME280_humidity;BME280_pressure;Samples;Min_cycle;Max_cycle;Signal;HPM_P1;HPM_P2
2021/06/14 00:00:16;;;;;;;8.73;4.68;;;;;;;14.46;65.45;101834.41;4873953;29;20232;-86
2021/06/14 00:02:45;;;;;;;6.28;3.78;;;;;;;14.43;65.76;101830.91;4883467;29;20055;-85
2021/06/14 00:05:17;;;;;;;3.60;3.30;;;;;;;14.38;66.41;101829.19;4874065;29;20498;-86
2021/06/14 00:07:45;;;;;;;8.23;4.70;;;;;;;14.35;66.46;101831.84;4890710;29;20102;-86
2021/06/14 00:10:14;;;;;;;8.23;4.68;;;;;;;14.33;67.29;101830.97;4901026;29;20074;-86
2021/06/14 00:12:42;;;;;;;6.82;4.45;;;;;;;14.28;67.63;101830.13;4882968;29;24228;-86
2021/06/14 00:15:10;;;;;;;8.00;4.85;;;;;;;14.22;68.30;101831.03;4899820;29;20051;-86
2021/06/14 00:17:39;;;;;;;4.55;3.85;;;;;;;14.17;69.00;101829.28;4900031;29;20044;-85
2021/06/14 00:20:11;;;;;;;5.40;4.07;;;;;;;14.12;69.19;101821.44;4897585;29;21623;-85
2021/06/14 00:22:46;;;;;;;6.15;3.75;;;;;;;14.09;70.14;101828.47;4881821;29;20059;-86
2021/06/14 00:25:17;;;;;;;6.00;3.70;;;;;;;14.02;69.80;101820.56;4879771;29;20048;-86
2021/06/14 00:27:44;;;;;;;6.93;4.25;;;;;;;13.99;69.58;101822.38;4884711;29;20802;-86
2021/06/14 00:30:31;;;;;;;8.23;5.35;;;;;;;13.95;70.26;101810.97;4897649;29;20044;-86
2021/06/14 00:32:58;;;;;;;6.88;3.38;;;;;;;13.91;69.87;101814.50;4882530;29;20122;-85
2021/06/14 00:35:26;;;;;;;6.00;4.20;;;;;;;13.90;69.88;101810.97;4867092;29;20404;-86
2021/06/14 00:37:53;;;;;;;8.00;4.22;;;;;;;13.87;69.95;101810.13;4896216;29;20067;-85
2021/06/14 00:40:25;;;;;;;2.97;2.72;;;;;;;13.86;70.40;101805.75;4884989;29;20028;-85
2021/06/14 00:42:52;;;;;;;6.05;3.97;;;;;;;13.82;70.22;101807.50;4885946;29;20054;-85
2021/06/14 00:45:31;;;;;;;7.43;3.50;;;;;;;13.79;70.88;101804.88;4882683;29;20143;-85
2021/06/14 00:48:04;;;;;;;6.18;4.28;;;;;;;13.75;70.45;101805.78;4888882;29;20108;-85
2021/06/14 00:50:53;;;;;;;10.37;4.40;;;;;;;13.71;70.90;101798.78;4879633;29;20071;-86
2021/06/14 00:53:29;;;;;;;9.20;3.95;;;;;;;13.66;71.10;101801.44;4887284;29;20159;-86
2021/06/14 00:56:03;;;;;;;7.18;3.95;;;;;;;13.63;71.41;101796.16;4863952;29;20389;-85
2021/06/14 00:58:30;;;;;;;6.70;3.55;;;;;;;13.60;71.47;101797.94;4883779;29;20689;-85
2021/06/14 01:00:58;;;;;;;4.93;4.18;;;;;;;13.56;71.86;101795.31;4873451;29;20048;-85
2021/06/14 01:03:26;;;;;;;7.88;3.67;;;;;;;13.54;72.21;101793.56;4864397;29;20484;-85
2021/06/14 01:06:01;;;;;;;6.10;3.72;;;;;;;13.50;71.77;101791.84;4883390;29;20052;-85
2021/06/14 01:08:31;;;;;;;6.90;4.03;;;;;;;13.45;72.54;101796.22;4867109;29;20107;-85
2021/06/14 01:10:59;;;;;;;3.90;3.55;;;;;;;13.38;72.76;101788.34;4866777;29;20055;-85
2021/06/14 01:13:26;;;;;;;6.90;4.00;;;;;;;13.34;72.99;101783.09;4888402;29;20138;-85
2021/06/14 01:16:13;;;;;;;5.50;4.15;;;;;;;13.31;73.66;101789.22;4897735;29;20098;-85
2021/06/14 01:18:50;;;;;;;4.38;3.47;;;;;;;13.26;73.85;101791.00;4901654;29;20425;-85
2021/06/14 01:21:45;;;;;;;6.60;3.75;;;;;;;13.20;74.65;101786.59;4877117;29;20076;-84
2021/06/14 01:24:38;;;;;;;6.50;3.70;;;;;;;13.15;74.42;101780.47;4880767;29;20151;-85
2021/06/14 01:27:07;;;;;;;5.93;3.55;;;;;;;13.12;74.57;101779.63;4902294;29;20112;-85
2021/06/14 01:29:39;;;;;;;7.25;4.38;;;;;;;13.08;74.88;101776.13;4885596;29;20079;-85
2021/06/14 01:32:08;;;;;;;7.05;3.83;;;;;;;13.03;74.70;101776.09;4875532;29;20084;-86
2021/06/14 01:34:40;;;;;;;11.65;3.80;;;;;;;13.03;74.81;101780.50;4864577;29;20048;-85
2021/06/14 01:37:10;;;;;;;10.30;5.28;;;;;;;12.99;75.23;101776.13;4891595;29;21723;-85
2021/06/14 01:39:39;;;;;;;6.50;4.40;;;;;;;12.94;75.04;101770.84;4867748;29;20130;-85
2021/06/14 01:42:08;;;;;;;4.68;4.18;;;;;;;12.93;74.97;101766.47;4898521;29;20131;-85
2021/06/14 01:44:36;;;;;;;7.07;4.13;;;;;;;12.89;75.40;101768.25;4876518;29;20115;-85
2021/06/14 01:47:06;;;;;;;4.40;3.70;;;;;;;12.86;75.60;101765.59;4868920;29;20052;-85
2021/06/14 01:49:34;;;;;;;7.65;3.85;;;;;;;12.83;75.64;101757.75;4872555;29;20970;-85
2021/06/14 01:52:01;;;;;;;6.20;4.18;;;;;;;12.80;75.95;101757.75;4888998;29;20067;-85
2021/06/14 01:54:28;;;;;;;6.68;4.05;;;;;;;12.76;75.84;101761.22;4871917;29;20080;-85
2021/06/14 01:56:58;;;;;;;6.60;4.15;;;;;;;12.77;76.02;101757.72;4884535;29;20064;-85
2021/06/14 01:59:36;;;;;;;5.82;4.57;;;;;;;12.74;75.75;101763.88;4883303;29;20062;-85
2021/06/14 02:02:05;;;;;;;7.97;3.75;;;;;;;12.70;75.65;101756.00;4884152;29;20056;-85
2021/06/14 02:04:35;;;;;;;4.68;4.25;;;;;;;12.68;75.63;101757.75;4882158;29;20055;-85
2021/06/14 02:07:02;;;;;;;4.60;3.88;;;;;;;12.66;75.54;101760.38;4885829;29;20116;-85
2021/06/14 02:09:33;;;;;;;6.10;3.95;;;;;;;12.64;75.48;101753.38;4868386;29;20504;-85
2021/06/14 02:12:04;;;;;;;12.18;3.72;;;;;;;12.59;75.21;101750.72;4873712;29;21205;-85
2021/06/14 02:14:36;;;;;;;4.20;3.60;;;;;;;12.57;75.21;101747.25;4900008;29;20139;-84
2021/06/14 02:17:12;;;;;;;7.78;3.95;;;;;;;12.55;74.97;101746.34;4863706;29;20064;-85
2021/06/14 02:19:40;;;;;;;5.35;3.70;;;;;;;12.51;74.81;101752.47;4875506;29;20108;-85
2021/06/14 02:22:08;;;;;;;4.95;3.95;;;;;;;12.49;74.84;101736.72;4872739;29;20518;-85
2021/06/14 02:24:40;;;;;;;7.22;3.58;;;;;;;12.49;74.80;101736.72;4897720;29;20468;-85
2021/06/14 02:27:11;;;;;;;4.45;3.70;;;;;;;12.48;74.68;101740.22;4884516;29;20479;-85
2021/06/14 02:29:39;;;;;;;6.13;3.80;;;;;;;12.46;75.00;101738.47;4880155;29;20883;-85
2021/06/14 02:32:07;;;;;;;4.68;3.35;;;;;;;12.45;74.93;101736.72;4880225;29;20395;-85
2021/06/14 02:34:36;;;;;;;8.57;3.83;;;;;;;12.42;75.21;101734.97;4863466;29;21055;-85
2021/06/14 02:37:07;;;;;;;6.47;3.92;;;;;;;12.40;74.92;101734.09;4897126;29;20040;-85
2021/06/14 02:39:37;;;;;;;4.95;2.80;;;;;;;12.36;75.00;101725.34;4868630;29;20048;-85
2021/06/14 02:42:06;;;;;;;5.68;3.75;;;;;;;12.34;75.11;101728.84;4862720;29;20055;-85
2021/06/14 02:44:33;;;;;;;6.15;4.55;;;;;;;12.31;75.15;101724.44;4881043;29;20040;-85
2021/06/14 02:47:09;;;;;;;7.55;3.70;;;;;;;12.29;75.50;101725.31;4880916;29;20095;-85
2021/06/14 02:49:38;;;;;;;8.32;4.25;;;;;;;12.26;75.42;101726.19;4873731;29;20049;-85
2021/06/14 02:52:12;;;;;;;7.70;3.95;;;;;;;12.22;75.58;101721.81;4884092;29;20055;-85
2021/06/14 02:54:46;;;;;;;7.85;3.78;;;;;;;12.20;75.99;101718.31;4881271;29;20606;-85
2021/06/14 02:57:13;;;;;;;4.85;3.30;;;;;;;12.16;75.50;101721.81;4881093;29;20068;-86
2021/06/14 02:59:44;;;;;;;8.50;3.60;;;;;;;12.15;75.98;101725.28;4885396;29;20419;-85
2021/06/14 03:02:11;;;;;;;5.28;4.15;;;;;;;12.10;76.41;101717.44;4886225;29;20407;-85
2021/06/14 03:04:39;;;;;;;8.02;3.92;;;;;;;12.07;76.58;101714.78;4882667;29;20052;-85
2021/06/14 03:07:06;;;;;;;9.05;3.92;;;;;;;12.02;76.23;101708.66;4881053;29;20075;-85
2021/06/14 03:09:34;;;;;;;6.72;3.97;;;;;;;11.99;76.64;101717.38;4873691;29;20083;-85
2021/06/14 03:12:03;;;;;;;8.43;3.65;;;;;;;11.97;76.55;101713.00;4879832;29;20083;-85
2021/06/14 03:14:30;;;;;;;5.75;3.67;;;;;;;11.96;76.67;101713.91;4868865;29;20047;-85
2021/06/14 03:16:59;;;;;;;7.38;3.60;;;;;;;11.94;76.33;101705.97;4871646;29;20096;-85
2021/06/14 03:19:27;;;;;;;7.80;4.00;;;;;;;11.91;76.47;101704.25;4896513;29;20060;-85
2021/06/14 03:21:56;;;;;;;7.88;3.90;;;;;;;11.92;76.28;101705.09;4883112;29;20048;-85
2021/06/14 03:24:24;;;;;;;5.60;3.53;;;;;;;11.92;76.69;101692.84;4864647;29;20052;-85
2021/06/14 03:26:51;;;;;;;5.68;3.65;;;;;;;11.93;76.08;101688.50;4884173;29;20040;-85
2021/06/14 03:29:24;;;;;;;5.80;3.85;;;;;;;11.95;76.44;101689.41;4897743;29;20055;-85
2021/06/14 03:31:53;;;;;;;9.50;4.63;;;;;;;12.01;76.26;101692.03;4885452;29;20070;-85
2021/06/14 03:34:23;;;;;;;10.05;4.93;;;;;;;12.03;75.84;101686.78;4870406;29;20499;-85
2021/06/14 03:36:51;;;;;;;5.03;3.47;;;;;;;12.01;75.95;101696.41;4875323;29;20048;-85
2021/06/14 03:39:20;;;;;;;10.15;4.38;;;;;;;11.98;75.60;101693.78;4884600;29;20068;-86
2021/06/14 03:41:51;;;;;;;8.68;5.05;;;;;;;11.97;75.60;101685.03;4886932;29;20139;-85
2021/06/14 03:44:20;;;;;;;5.15;4.38;;;;;;;11.97;75.65;101689.38;4879095;29;20051;-86
2021/06/14 03:46:50;;;;;;;8.35;3.47;;;;;;;11.97;75.66;101692.00;4885280;29;20111;-85
2021/06/14 03:49:17;;;;;;;8.30;4.18;;;;;;;11.97;75.79;101686.75;4873400;29;20148;-84
2021/06/14 03:51:44;;;;;;;9.20;3.72;;;;;;;12.00;75.27;101686.78;4871527;29;20060;-85
2021/06/14 03:54:10;;;;;;;4.85;2.78;;;;;;;12.02;75.17;101691.16;4887801;29;20067;-86
2021/06/14 03:56:37;;;;;;;5.28;3.58;;;;;;;12.05;75.08;101690.31;4861163;29;20931;-85
2021/06/14 03:59:05;;;;;;;7.32;4.07;;;;;;;12.10;74.86;101698.16;4867926;29;22190;-85
2021/06/14 04:01:36;;;;;;;6.57;3.83;;;;;;;12.15;74.74;101699.03;4888677;29;20048;-86
2021/06/14 04:04:21;;;;;;;7.85;2.85;;;;;;;12.21;74.67;101693.81;4876022;29;20495;-85
2021/06/14 04:06:48;;;;;;;7.38;4.05;;;;;;;12.29;74.25;101691.19;4873931;29;20052;-85
2021/06/14 04:09:17;;;;;;;7.15;4.40;;;;;;;12.34;73.74;101694.69;4876123;29;20680;-85
2021/06/14 04:11:45;;;;;;;7.65;4.18;;;;;;;12.38;73.62;101680.69;4901447;29;20056;-85
2021/06/14 04:14:12;;;;;;;6.03;3.60;;;;;;;12.41;73.73;101684.19;4886527;29;20080;-85
2021/06/14 04:16:40;;;;;;;4.45;3.67;;;;;;;12.49;73.13;101683.31;4888254;29;20048;-86
2021/06/14 04:19:07;;;;;;;8.73;4.50;;;;;;;12.54;72.79;101682.44;4882795;29;20096;-84
2021/06/14 04:21:34;;;;;;;3.38;3.08;;;;;;;12.63;72.92;101685.94;4875174;29;20048;-85
2021/06/14 04:24:01;;;;;;;9.20;4.30;;;;;;;12.71;72.54;101684.16;4901881;29;20052;-85
2021/06/14 04:26:32;;;;;;;4.28;3.10;;;;;;;12.78;72.29;101675.41;4873519;29;20052;-85
2021/06/14 04:28:59;;;;;;;5.63;3.30;;;;;;;12.87;71.60;101678.00;4869928;29;20056;-86
2021/06/14 04:31:27;;;;;;;4.25;3.20;;;;;;;12.99;71.30;101681.50;4876989;29;20123;-86
2021/06/14 04:33:54;;;;;;;9.23;3.47;;;;;;;13.07;70.96;101679.72;4899677;29;20048;-86
2021/06/14 04:36:20;;;;;;;7.88;3.60;;;;;;;13.15;70.86;101675.31;4887623;29;20056;-85
2021/06/14 04:38:47;;;;;;;5.65;3.83;;;;;;;13.21;70.73;101680.56;4870730;29;20056;-85
2021/06/14 04:41:15;;;;;;;5.18;3.30;;;;;;;13.28;70.13;101670.88;4904757;29;20052;-85
2021/06/14 04:43:42;;;;;;;7.28;3.25;;;;;;;13.36;70.24;101669.16;4882083;29;20162;-85
2021/06/14 04:46:10;;;;;;;6.85;4.18;;;;;;;13.43;69.75;101666.47;4883210;29;20487;-85
2021/06/14 04:48:36;;;;;;;5.97;3.40;;;;;;;13.48;69.66;101670.84;4882858;29;20932;-85
2021/06/14 04:51:07;;;;;;;7.78;3.83;;;;;;;13.57;69.06;101675.16;4889315;29;20059;-85
2021/06/14 04:53:37;;;;;;;6.90;2.83;;;;;;;13.66;68.86;101676.88;4873063;29;20056;-85
2021/06/14 04:56:06;;;;;;;9.30;3.92;;;;;;;13.75;68.84;101676.81;4871510;29;20048;-85
2021/06/14 04:58:33;;;;;;;5.60;3.45;;;;;;;13.84;68.79;101678.53;4902838;29;20683;-85
2021/06/14 05:01:04;;;;;;;9.45;3.78;;;;;;;13.95;68.21;101687.25;4883690;29;20542;-85
2021/06/14 05:03:31;;;;;;;9.35;4.53;;;;;;;14.03;68.09;101682.81;4884509;29;20072;-85
2021/06/14 05:05:57;;;;;;;11.43;4.45;;;;;;;14.09;67.54;101678.38;4885414;29;20068;-85
2021/06/14 05:08:24;;;;;;;6.60;3.70;;;;;;;14.18;67.17;101683.56;4900732;29;20151;-84
2021/06/14 05:10:53;;;;;;;6.22;3.38;;;;;;;14.23;66.97;101677.38;4882167;29;20135;-84
2021/06/14 05:13:24;;;;;;;9.70;3.72;;;;;;;14.30;66.76;101685.25;4869828;29;20063;-84
2021/06/14 05:15:51;;;;;;;5.95;3.88;;;;;;;14.35;66.63;101684.34;4868638;29;20123;-85
2021/06/14 05:18:21;;;;;;;5.18;3.72;;;;;;;14.42;66.22;101685.16;4885795;29;20048;-85
2021/06/14 05:20:48;;;;;;;8.82;3.50;;;;;;;14.48;66.18;101687.72;4879760;29;21007;-84
2021/06/14 05:23:14;;;;;;;8.48;3.50;;;;;;;14.54;65.68;101700.84;4882626;29;20052;-85
2021/06/14 05:25:41;;;;;;;11.13;5.05;;;;;;;14.61;65.25;101701.66;4883114;29;20056;-84
2021/06/14 05:28:12;;;;;;;3.90;2.97;;;;;;;14.68;65.47;101702.53;4876624;29;20063;-85
2021/06/14 05:30:42;;;;;;;8.88;3.83;;;;;;;14.70;65.25;101701.59;4883687;29;20059;-85
2021/06/14 05:33:10;;;;;;;4.53;2.70;;;;;;;14.78;65.05;101703.31;4874317;29;20075;-85
2021/06/14 05:35:39;;;;;;;7.50;3.30;;;;;;;14.88;64.79;101707.59;4870393;29;20857;-85
2021/06/14 05:38:09;;;;;;;5.80;3.80;;;;;;;14.95;64.39;101700.50;4893962;29;20050;-84
2021/06/14 05:40:40;;;;;;;4.97;3.05;;;;;;;15.00;64.10;101694.28;4869352;29;20063;-85
2021/06/14 05:43:09;;;;;;;3.38;2.78;;;;;;;15.08;64.01;101693.34;4880332;29;20120;-85
2021/06/14 05:45:40;;;;;;;8.77;3.33;;;;;;;15.10;63.98;101692.44;4869336;29;20091;-85
2021/06/14 05:48:18;;;;;;;7.38;3.20;;;;;;;15.13;63.80;101695.03;4889948;29;20092;-85
2021/06/14 05:50:52;;;;;;;3.65;2.35;;;;;;;15.18;63.67;101693.19;4869908;29;20047;-85
2021/06/14 05:53:25;;;;;;;6.75;3.42;;;;;;;15.27;63.56;101691.38;4900286;29;20060;-85
2021/06/14 05:55:52;;;;;;;8.63;3.08;;;;;;;15.35;63.45;101689.50;4873077;29;20059;-85
2021/06/14 05:58:20;;;;;;;5.95;3.05;;;;;;;15.42;62.68;101677.97;4899207;29;20060;-85
2021/06/14 06:00:47;;;;;;;5.45;2.72;;;;;;;15.48;62.94;101680.53;4887236;29;20054;-85
2021/06/14 06:03:31;;;;;;;5.65;2.35;;;;;;;15.57;62.69;101679.53;4883232;29;20052;-86
2021/06/14 06:06:06;;;;;;;7.20;2.92;;;;;;;15.66;62.37;101678.56;4868032;29;20056;-85
2021/06/14 06:08:33;;;;;;;5.88;3.63;;;;;;;15.74;62.00;101676.69;4872461;29;20364;-85
2021/06/14 06:11:00;;;;;;;7.22;3.45;;;;;;;15.83;62.16;101678.34;4859101;29;20167;-85
2021/06/14 06:13:28;;;;;;;5.82;3.80;;;;;;;15.95;61.47;101675.50;4866578;29;20052;-85
2021/06/14 06:15:57;;;;;;;13.65;3.13;;;;;;;16.06;60.78;101677.13;4884247;29;20052;-85
2021/06/14 06:18:24;;;;;;;7.57;3.90;;;;;;;16.12;60.86;101677.03;4889563;29;20045;-86
2021/06/14 06:20:52;;;;;;;5.28;3.15;;;;;;;16.19;60.77;101674.28;4882865;29;20048;-85
2021/06/14 06:23:24;;;;;;;5.80;3.42;;;;;;;16.28;59.52;101675.91;4867940;29;20060;-85
2021/06/14 06:25:51;;;;;;;8.05;3.90;;;;;;;16.36;59.61;101676.63;4868841;29;20051;-85
2021/06/14 06:28:18;;;;;;;5.80;3.35;;;;;;;16.40;59.55;101672.19;4884284;29;20132;-85
2021/06/14 06:30:48;;;;;;;13.38;4.53;;;;;;;16.51;59.07;101679.91;4873959;29;20067;-85
2021/06/14 06:33:18;;;;;;;7.50;2.85;;;;;;;16.57;58.90;101687.75;4863754;29;20147;-85
2021/06/14 06:35:44;;;;;;;6.20;3.35;;;;;;;16.69;58.08;101673.44;4880802;29;20119;-85
2021/06/14 06:38:11;;;;;;;6.18;2.80;;;;;;;16.78;58.24;101670.63;4884708;29;20123;-86
2021/06/14 06:40:50;;;;;;;8.77;3.53;;;;;;;16.91;57.72;101673.06;4885113;29;20586;-85
2021/06/14 06:43:20;;;;;;;11.30;3.10;;;;;;;17.00;57.37;101664.94;4888443;29;20048;-85
2021/06/14 06:45:48;;;;;;;3.28;2.55;;;;;;;17.08;57.29;101670.97;4863543;29;20162;-84
2021/06/14 06:48:19;;;;;;;7.55;3.63;;;;;;;17.14;56.90;101672.59;4883152;29;20256;-86
2021/06/14 06:50:46;;;;;;;6.45;3.50;;;;;;;17.20;56.58;101683.94;4894744;29;20040;-86
2021/06/14 06:53:13;;;;;;;5.88;2.63;;;;;;;17.25;56.62;101682.97;4865423;29;20044;-85
2021/06/14 06:55:42;;;;;;;6.15;3.17;;;;;;;17.33;56.27;101676.63;4882544;29;20076;-86
2021/06/14 06:58:11;;;;;;;6.95;3.10;;;;;;;17.40;56.39;101681.78;4906382;29;20108;-85
2021/06/14 07:00:43;;;;;;;5.78;2.45;;;;;;;17.46;56.34;101671.09;4906233;29;20079;-86
2021/06/14 07:03:12;;;;;;;7.80;2.80;;;;;;;17.52;56.35;101666.53;4868878;29;20516;-85
2021/06/14 07:05:41;;;;;;;4.53;2.90;;;;;;;17.63;55.32;101655.69;4884818;29;20044;-86
2021/06/14 07:08:10;;;;;;;11.93;3.92;;;;;;;17.73;55.40;101653.72;4896693;29;20044;-85
2021/06/14 07:10:40;;;;;;;6.75;3.22;;;;;;;17.83;55.35;101644.66;4873404;29;20091;-86
2021/06/14 07:13:15;;;;;;;5.38;2.28;;;;;;;17.94;55.44;101647.06;4865385;29;20056;-85
2021/06/14 07:15:42;;;;;;;14.35;3.38;;;;;;;18.07;55.19;101644.09;4884225;29;20052;-85
2021/06/14 07:18:16;;;;;;;7.90;2.28;;;;;;;18.16;54.66;101642.13;4879771;29;20044;-85
2021/06/14 07:20:44;;;;;;;7.18;3.25;;;;;;;18.24;54.63;101649.00;4881415;29;20140;-86
2021/06/14 07:23:11;;;;;;;5.60;2.25;;;;;;;18.39;53.70;101645.94;4884677;29;20044;-85
2021/06/14 07:25:38;;;;;;;4.10;2.38;;;;;;;18.60;52.76;101638.34;4865120;29;20057;-85
2021/06/14 07:28:06;;;;;;;7.05;3.05;;;;;;;18.86;52.42;101640.28;4880118;29;20051;-85
2021/06/14 07:30:43;;;;;;;3.95;3.00;;;;;;;19.45;49.48;101642.16;4873582;29;20067;-85
2021/06/14 07:33:20;;;;;;;5.50;3.20;;;;;;;20.03;48.15;101635.09;4891509;29;20520;-86
2021/06/14 07:35:48;;;;;;;5.10;3.00;;;;;;;20.66;47.84;101632.91;4892742;29;20044;-86
2021/06/14 07:38:21;;;;;;;5.35;2.50;;;;;;;21.34;45.89;101627.78;4875538;29;20040;-85
2021/06/14 07:40:51;;;;;;;4.80;2.47;;;;;;;21.91;44.50;101622.88;4878103;29;20052;-86
2021/06/14 07:43:22;;;;;;;6.25;2.60;;;;;;;22.29;44.05;101614.19;4892959;29;20040;-86
2021/06/14 07:46:11;;;;;;;5.55;3.22;;;;;;;23.04;42.37;101610.00;4894399;29;20465;-86
2021/06/14 07:48:39;;;;;;;4.95;2.72;;;;;;;23.59;40.70;101609.22;4880181;29;20424;-86
2021/06/14 07:51:07;;;;;;;6.75;2.70;;;;;;;23.90;40.31;101599.72;4877729;29;20791;-86
2021/06/14 07:53:37;;;;;;;5.13;3.05;;;;;;;24.35;39.63;101593.91;4880239;29;20182;-86
2021/06/14 07:56:06;;;;;;;10.68;2.90;;;;;;;24.66;38.49;101600.34;4865744;29;20056;-86
2021/06/14 07:58:37;;;;;;;4.38;2.08;;;;;;;25.15;37.27;101597.69;4884371;29;20492;-87
2021/06/14 08:01:04;;;;;;;2.58;2.10;;;;;;;25.61;36.84;101594.25;4876776;29;20742;-84
2021/06/14 08:03:32;;;;;;;4.75;2.75;;;;;;;25.88;35.38;101594.44;4863565;29;20056;-86
2021/06/14 08:06:04;;;;;;;7.35;2.97;;;;;;;26.16;35.10;101582.09;4865840;29;20389;-85
2021/06/14 08:08:30;;;;;;;2.83;2.40;;;;;;;26.49;34.13;101588.19;4865211;29;20052;-85
2021/06/14 08:11:03;;;;;;;3.33;2.65;;;;;;;26.68;33.21;101588.78;4897595;29;20143;-86
2021/06/14 08:13:33;;;;;;;2.42;2.00;;;;;;;26.81;32.70;101593.44;4867296;29;20072;-85
2021/06/14 08:16:00;;;;;;;3.40;1.98;;;;;;;26.86;32.88;101597.53;4884322;29;20048;-86
2021/06/14 08:18:37;;;;;;;4.57;2.28;;;;;;;27.05;32.40;101593.69;4869072;29;20440;-86
2021/06/14 08:21:15;;;;;;;3.65;2.53;;;;;;;27.43;32.03;101581.44;4878601;29;20059;-84
2021/06/14 08:26:31;;;;;;;3.40;2.95;;;;;;;28.30;30.68;101577.38;4873201;29;20144;-84
2021/06/14 08:29:00;;;;;;;5.28;2.55;;;;;;;28.64;29.93;101574.16;4883115;29;20428;-85
2021/06/14 08:31:33;;;;;;;3.63;2.10;;;;;;;28.52;29.38;101562.41;4877628;29;20146;-86
2021/06/14 08:34:01;;;;;;;4.97;2.42;;;;;;;28.75;29.79;101570.72;4879764;29;20063;-87
2021/06/14 08:36:30;;;;;;;3.28;2.22;;;;;;;29.40;29.10;101560.63;4883918;29;20116;-84
2021/06/14 08:38:59;;;;;;;4.93;2.08;;;;;;;29.99;27.92;101565.22;4882718;29;20044;-84
2021/06/14 08:41:26;;;;;;;6.38;3.50;;;;;;;30.01;27.17;101572.22;4885970;29;20461;-84
2021/06/14 08:43:59;;;;;;;7.25;2.63;;;;;;;29.99;27.10;101570.63;4879589;29;20146;-86
2021/06/14 08:46:29;;;;;;;4.07;2.72;;;;;;;29.93;26.88;101561.13;4878716;29;20044;-86
2021/06/14 08:48:56;;;;;;;5.50;2.90;;;;;;;30.32;27.08;101555.47;4870341;29;20052;-85
2021/06/14 08:51:28;;;;;;;3.83;2.20;;;;;;;30.75;26.40;101553.91;4874774;29;20308;-84
2021/06/14 08:53:56;;;;;;;;;;;;;;;30.75;25.77;101543.94;4883707;29;20143;-85
2021/06/14 08:56:28;;;;;;;4.20;2.30;;;;;;;31.39;24.84;101544.22;4885793;29;19935;-86
2021/06/14 08:58:57;;;;;;;5.90;2.50;;;;;;;31.69;24.88;101543.50;4867543;29;20123;-86
2021/06/14 09:01:27;;;;;;;5.45;2.60;;;;;;;31.57;24.25;101542.66;4883794;29;20048;-86
2021/06/14 09:03:55;;;;;;;4.93;2.53;;;;;;;31.69;24.17;101543.50;4877563;29;20044;-85
2021/06/14 09:06:29;;;;;;;3.63;2.25;;;;;;;31.49;24.64;101545.16;4881098;29;20828;-86
2021/06/14 09:09:08;;;;;;;5.10;2.67;;;;;;;31.77;24.26;101532.91;4885780;29;20170;-85
2021/06/14 09:11:58;;;;;;;5.45;2.55;;;;;;;31.86;23.47;101527.66;4883982;29;20140;-86
2021/06/14 09:14:37;;;;;;;5.32;2.20;;;;;;;31.77;23.34;101519.38;4886473;29;20052;-85
2021/06/14 09:17:09;;;;;;;3.70;2.35;;;;;;;31.90;23.59;101521.00;4896109;29;20051;-85
2021/06/14 09:19:40;;;;;;;3.33;2.20;;;;;;;32.54;23.41;101519.94;4879176;29;20052;-85
2021/06/14 09:22:23;;;;;;;3.42;2.53;;;;;;;33.20;22.43;101507.69;4879557;29;20072;-85
2021/06/14 09:25:14;;;;;;;5.25;2.45;;;;;;;33.84;21.01;101508.16;4899265;29;20052;-86
2021/06/14 09:27:47;;;;;;;4.60;2.15;;;;;;;33.97;20.17;101508.72;4870277;29;20075;-86
2021/06/14 09:30:31;;;;;;;3.30;2.40;;;;;;;33.57;20.55;101508.88;4898277;29;20644;-84
2021/06/14 09:33:05;;;;;;;6.18;2.67;;;;;;;33.37;20.42;101506.16;4871930;29;20214;-86
2021/06/14 09:35:35;;;;;;;5.15;2.30;;;;;;;33.83;21.14;101505.59;4867425;29;20112;-84
2021/06/14 09:38:19;;;;;;;4.05;2.00;;;;;;;34.41;20.22;101497.28;4881000;29;20450;-85
2021/06/14 09:40:53;;;;;;;4.63;1.92;;;;;;;35.02;19.73;101503.13;4868132;29;20062;-85
2021/06/14 09:43:35;;;;;;;6.40;2.88;;;;;;;35.28;19.63;101488.75;4867064;29;20121;-85
2021/06/14 09:46:06;;;;;;;2.72;2.30;;;;;;;35.31;19.90;101488.41;4865008;29;20052;-85
2021/06/14 09:48:41;;;;;;;5.75;2.53;;;;;;;35.34;20.09;101490.84;4868418;29;20040;-85
2021/06/14 09:51:10;;;;;;;3.85;2.58;;;;;;;35.49;19.95;101480.28;4894147;29;20063;-85
2021/06/14 09:53:55;;;;;;;3.05;2.38;;;;;;;35.81;19.60;101470.59;4900957;29;20478;-85
2021/06/14 09:56:35;;;;;;;2.85;2.22;;;;;;;36.14;19.05;101461.78;4886481;29;20063;-86
2021/06/14 09:59:07;;;;;;;3.20;2.40;;;;;;;35.78;18.48;101460.03;4883390;29;20053;-86
2021/06/14 10:01:42;;;;;;;2.72;2.17;;;;;;;35.77;19.12;101448.31;4867975;29;20045;-84
2021/06/14 10:04:13;;;;;;;1.75;1.65;;;;;;;35.83;18.91;101435.03;4860075;29;20420;-85
2021/06/14 10:06:44;;;;;;;3.33;1.90;;;;;;;36.18;18.79;101446.81;4864819;29;20147;-85
2021/06/14 10:09:37;;;;;;;3.30;2.13;;;;;;;36.86;18.05;101450.53;4885776;29;20052;-84
2021/06/14 10:12:26;;;;;;;2.72;2.20;;;;;;;37.46;17.35;101446.63;4883831;29;20068;-85
2021/06/14 10:15:07;;;;;;;2.80;1.90;;;;;;;37.33;17.92;101433.50;4881153;29;20048;-85
2021/06/14 10:17:43;;;;;;;2.63;2.22;;;;;;;37.52;17.42;101429.56;4877260;29;20045;-86
2021/06/14 10:20:24;;;;;;;2.22;2.03;;;;;;;37.65;15.91;101433.63;4865802;29;21077;-85
2021/06/14 10:22:56;;;;;;;2.05;1.85;;;;;;;37.54;16.49;101427.50;4869229;29;20500;-87
2021/06/14 10:25:27;;;;;;;3.10;1.80;;;;;;;37.54;16.48;101434.84;4888118;29;20404;-85
2021/06/14 10:27:58;;;;;;;6.32;2.35;;;;;;;38.01;16.42;101428.59;4868650;29;20052;-83
2021/06/14 10:30:35;;;;;;;4.67;2.73;;;;;;;38.11;15.83;101428.41;4893165;29;20059;-86
2021/06/14 10:33:05;;;;;;;3.53;2.03;;;;;;;38.22;16.29;101429.88;4859827;29;20056;-88
2021/06/14 10:35:39;;;;;;;3.85;2.30;;;;;;;38.34;16.03;101417.53;4852963;29;20136;-86
2021/06/14 10:38:09;;;;;;;4.05;2.05;;;;;;;38.57;16.12;101416.75;4868546;29;20052;-86
2021/06/14 10:40:43;;;;;;;2.95;2.03;;;;;;;38.34;16.40;101428.47;4882785;29;20172;-87
2021/06/14 10:43:13;;;;;;;2.28;2.00;;;;;;;38.63;15.96;101418.78;4883713;29;20567;-85
2021/06/14 10:45:47;;;;;;;3.92;2.17;;;;;;;39.02;15.66;101420.56;4866017;29;20131;-85
2021/06/14 10:48:33;;;;;;;4.32;2.05;;;;;;;38.63;15.86;101412.44;4881806;29;20070;-85
2021/06/14 10:51:05;;;;;;;2.75;2.25;;;;;;;39.18;15.57;101416.03;4899899;29;20122;-85
2021/06/14 10:53:41;;;;;;;3.25;2.25;;;;;;;39.14;15.75;101414.63;4868250;29;20744;-87
2021/06/14 10:56:20;;;;;;;2.40;2.20;;;;;;;39.90;15.12;101411.84;4879647;29;20060;-84
2021/06/14 10:59:04;;;;;;;2.17;1.98;;;;;;;40.31;14.38;101403.13;4855247;29;20075;-86
2021/06/14 11:01:44;;;;;;;3.03;1.85;;;;;;;40.85;14.41;101407.31;4879457;29;20053;-86
2021/06/14 11:04:25;;;;;;;3.40;2.15;;;;;;;40.99;13.83;101404.69;4898468;29;20059;-85
2021/06/14 11:06:55;;;;;;;7.13;2.45;;;;;;;41.27;14.23;101390.16;4886416;29;20056;-87
2021/06/14 11:09:40;;;;;;;2.63;1.98;;;;;;;41.20;14.16;101386.50;4893940;29;20471;-87
2021/06/14 11:12:34;;;;;;;1.67;1.58;;;;;;;41.38;14.20;101386.84;4893106;29;20044;-86
2021/06/14 11:15:13;;;;;;;2.63;1.98;;;;;;;41.82;13.73;101373.84;4892107;29;20139;-85
2021/06/14 11:17:40;;;;;;;2.05;1.55;;;;;;;41.76;14.27;101380.97;4879475;29;20449;-86
2021/06/14 11:20:14;;;;;;;2.28;2.13;;;;;;;41.72;14.18;101376.94;4892522;29;20067;-85
2021/06/14 11:22:54;;;;;;;2.38;2.17;;;;;;;41.30;13.89;101387.88;4877037;29;20059;-87
2021/06/14 11:25:33;;;;;;;1.88;1.73;;;;;;;40.79;14.78;101382.53;4867726;29;20052;-86
2021/06/14 11:28:14;;;;;;;20.33;3.63;;;;;;;40.51;14.86;101384.13;4908579;29;20060;-86
2021/06/14 11:31:37;;;;;;;2.97;2.00;;;;;;;40.53;14.73;101369.41;4851784;29;20146;-85
2021/06/14 11:34:22;;;;;;;3.80;1.52;;;;;;;41.59;14.36;101371.34;4839768;29;20061;-86
2021/06/14 11:36:58;;;;;;;2.83;1.98;;;;;;;42.40;13.46;101369.81;4825556;29;20061;-85
2021/06/14 11:39:30;;;;;;;2.97;1.80;;;;;;;40.94;14.02;101353.13;4827153;29;20049;-85
2021/06/14 11:42:18;;;;;;;2.13;1.92;;;;;;;38.99;15.25;101354.38;4826356;29;20628;-85
2021/06/14 11:45:07;;;;;;;1.70;1.52;;;;;;;37.78;16.93;101343.78;4830155;29;20045;-84
2021/06/14 11:47:41;;;;;;;1.70;1.60;;;;;;;39.22;15.30;101343.41;4803995;29;20102;-85